Terminal Aerodrome Forecast
Issued by NWS

Home | Current Version | Previous Version | Text Only | Print | Product List | Glossary Off
Versions: 1 2 3 4 5 6 7 8 9 10 11 12 13 14 15

000
FTUS42 KMHX 080208 AAA
TAFISO
TAF AMD
KISO 080208Z 0802/0824 34012G22KT P6SM BKN060
      TEMPO 0802/0803 BKN009
     FM080800 30007KT P6SM SCT090
      AMD LTD TO CLD VIS AND WIND=

USA.gov is the U.S. government's official web portal to all federal, state and local government web resources and services.